This is the latest recevied weather packets stored in our database for station/object EA4IAJ-12. If no packets are shown the sender has not sent any weather packets the latest 10 day(s).
| Time | Temp. | Humidity | Pressure | Rain* | Wind** | Luminosity | Snow |
|---|---|---|---|---|---|---|---|
| 1787607383 | 21.11° C | 68% | 1005.1 hPa | - | - | - | - |
| 1787606483 | 21.11° C | 64% | 1004.6 hPa | - | - | - | - |
| 1787605582 | 21.11° C | 61% | 1004.7 hPa | - | - | - | - |
| 1787604788 | 21.11° C | 58% | 1005.2 hPa | - | - | - | - |
| 1787604682 | 21.11° C | 58% | 1005.2 hPa | - | - | - | - |
| 1787603781 | 21.11° C | 55% | 1004.9 hPa | - | - | - | - |
| 1787602881 | 21.11° C | 52% | 1004.9 hPa | - | - | - | - |
| 1787601980 | 21.67° C | 50% | 1005.5 hPa | - | - | - | - |
| 1787601080 | 21.67° C | 48% | 1005.8 hPa | - | - | - | - |
| 1787600179 | 22.22° C | 46% | 1007 hPa | - | - | - | - |
| 1787599279 | 22.22° C | 44% | 1007.7 hPa | - | - | - | - |
| 1787598378 | 22.78° C | 43% | 1008.9 hPa | - | - | - | - |
| 1787597478 | 23.33° C | 42% | 1010.2 hPa | - | - | - | - |
| 1787596577 | 23.89° C | 41% | 1012.9 hPa | - | - | - | - |
| 1787595677 | 24.44° C | 40% | 1014.2 hPa | - | - | - | - |
| 1787594776 | 25° C | 40% | 1016.2 hPa | - | - | - | - |
| 1787593876 | 25.56° C | 39% | 1018.2 hPa | - | - | - | - |
| 1787592975 | 25.56° C | 38% | 1017.8 hPa | - | - | - | - |
| 1787592074 | 25.56° C | 38% | 1018.3 hPa | - | - | - | - |
| 1787591565 | 26.11° C | 38% | 1020.3 hPa | - | - | - | - |
| 1787591174 | 26.11° C | 38% | 1020.3 hPa | - | - | - | - |
| 1787590273 | 27.22° C | 37% | 1023.8 hPa | - | - | - | - |
| 1787589373 | 27.78° C | 37% | 1025 hPa | - | - | - | - |
| 1787588472 | 27.22° C | 36% | 1022.8 hPa | - | - | - | - |
| 1787587571 | 27.78° C | 36% | 1026 hPa | - | - | - | - |
* Rain since midnight (hover to see other rain measurements)
** Current wind speed in m/s (hover to see current wind gust speed)